createdAt,value
2023-02-08T00:00:04.462Z,2.23
2023-02-08T00:05:09.033Z,2.23
2023-02-08T00:10:11.373Z,2.11
2023-02-08T00:15:13.966Z,2.09
2023-02-08T00:20:15.766Z,2.05
2023-02-08T00:25:17.536Z,2.09
2023-02-08T00:30:19.219Z,2.06
2023-02-08T00:35:22.878Z,1.98
2023-02-08T00:45:44.623Z,1.83
2023-02-08T00:51:07.846Z,1.86
2023-02-08T00:56:14.084Z,1.79
2023-02-08T01:01:15.977Z,1.95
2023-02-08T01:06:18.309Z,1.94
2023-02-08T01:11:25.042Z,1.87
2023-02-08T01:16:30.148Z,1.89
2023-02-08T01:21:34.593Z,1.87
2023-02-08T01:26:36.651Z,1.74
2023-02-08T01:31:42.262Z,1.75
2023-02-08T01:36:44.221Z,1.75
2023-02-08T01:41:46.758Z,1.79
2023-02-08T01:46:51.290Z,1.86
2023-02-08T01:52:00.371Z,1.90
2023-02-08T01:57:02.617Z,1.91
2023-02-08T02:02:07.922Z,1.94
2023-02-08T02:07:10.057Z,1.95
2023-02-08T02:12:13.525Z,1.94
2023-02-08T02:17:18.586Z,1.94
2023-02-08T02:28:30.043Z,1.83
2023-02-08T02:33:42.388Z,1.84
2023-02-08T02:39:21.091Z,1.88
2023-02-08T02:44:31.846Z,1.90
2023-02-08T02:50:04.131Z,1.82
2023-02-08T02:55:13.431Z,1.85
2023-02-08T03:00:21.809Z,1.85
2023-02-08T03:05:23.541Z,1.76
2023-02-08T03:10:34.042Z,1.66
2023-02-08T03:16:10.343Z,1.67
2023-02-08T03:21:33.627Z,1.68
2023-02-08T03:26:59.428Z,1.67
2023-02-08T03:32:08.235Z,1.66
2023-02-08T03:37:24.002Z,1.70
2023-02-08T03:42:28.204Z,1.66
2023-02-08T03:47:35.364Z,1.64
2023-02-08T03:52:37.761Z,1.40
2023-02-08T03:57:56.247Z,1.35
2023-02-08T04:03:05.539Z,1.32
2023-02-08T04:08:07.276Z,1.35
2023-02-08T04:13:08.938Z,1.33
2023-02-08T04:18:10.601Z,1.31
2023-02-08T04:23:12.327Z,1.42
2023-02-08T04:28:14.032Z,1.45
2023-02-08T04:33:15.847Z,1.38
2023-02-08T04:38:17.530Z,1.36
2023-02-08T04:43:19.189Z,1.36
2023-02-08T04:48:21.005Z,1.16
2023-02-08T04:53:23.488Z,1.02
2023-02-08T04:58:25.086Z,1.11
2023-02-08T05:03:26.668Z,1.24
2023-02-08T05:08:28.451Z,1.18
2023-02-08T05:13:30.145Z,1.19
2023-02-08T05:18:31.738Z,1.25
2023-02-08T05:23:33.446Z,1.25
2023-02-08T05:28:35.634Z,1.26
2023-02-08T05:33:37.306Z,1.19
2023-02-08T05:38:38.924Z,1.22
2023-02-08T05:43:41.749Z,1.21
2023-02-08T05:48:43.443Z,1.24
2023-02-08T05:53:45.456Z,1.08
2023-02-08T05:58:47.363Z,1.11
2023-02-08T06:03:49.088Z,1.09
2023-02-08T06:08:50.807Z,1.13
2023-02-08T06:13:52.504Z,1.13
2023-02-08T06:18:54.113Z,1.03
2023-02-08T06:23:55.811Z,0.90
2023-02-08T06:28:59.575Z,0.83
2023-02-08T06:34:01.200Z,0.95
2023-02-08T06:39:02.842Z,1.02
2023-02-08T06:49:23.630Z,0.69
2023-02-08T06:54:25.199Z,0.78
2023-02-08T06:59:26.768Z,0.74
2023-02-08T07:04:28.388Z,0.55
2023-02-08T07:09:30.132Z,0.48
2023-02-08T07:14:33.838Z,0.50
2023-02-08T07:19:35.829Z,0.52
2023-02-08T07:24:39.689Z,0.43
2023-02-08T07:29:41.447Z,0.38
2023-02-08T07:34:43.134Z,0.31
2023-02-08T07:39:45.026Z,0.31
2023-02-08T07:44:46.600Z,0.22
2023-02-08T07:49:48.223Z,0.13
2023-02-08T07:54:49.921Z,0.13
2023-02-08T07:59:54.221Z,0.15
2023-02-08T08:04:55.972Z,0.13
2023-02-08T08:09:57.556Z,0.31
2023-02-08T08:14:59.210Z,0.14
2023-02-08T08:20:00.822Z,0.33
2023-02-08T08:25:02.422Z,0.40
2023-02-08T08:30:06.760Z,0.59
2023-02-08T08:35:09.121Z,0.49
2023-02-08T08:40:11.338Z,0.15
2023-02-08T08:45:14.237Z,0.38
2023-02-08T08:50:15.972Z,0.37
2023-02-08T08:55:17.702Z,0.55
2023-02-08T09:00:19.682Z,0.75
2023-02-08T09:05:21.361Z,0.63
2023-02-08T09:10:22.965Z,0.82
2023-02-08T09:20:45.016Z,0.97
2023-02-08T09:25:48.072Z,0.95
2023-02-08T09:30:51.020Z,0.99
2023-02-08T09:35:52.603Z,1.33
2023-02-08T09:41:02.908Z,1.26
2023-02-08T09:46:26.358Z,1.43
2023-02-08T09:51:37.381Z,1.39
2023-02-08T09:56:43.390Z,1.53
2023-02-08T10:01:46.508Z,2.09
2023-02-08T10:06:50.100Z,2.24
2023-02-08T10:12:13.480Z,2.36
2023-02-08T10:17:50.371Z,2.40
2023-02-08T10:22:57.899Z,2.47
2023-02-08T10:28:27.054Z,2.38
2023-02-08T10:33:41.498Z,2.54
2023-02-08T10:38:46.709Z,2.92
2023-02-08T10:44:00.204Z,3.39
2023-02-08T10:49:25.378Z,3.66
2023-02-08T10:54:27.404Z,3.68
2023-02-08T10:59:51.352Z,3.62
2023-02-08T11:05:12.529Z,3.48
2023-02-08T11:15:52.552Z,3.65
2023-02-08T11:21:02.533Z,3.40
2023-02-08T11:26:39.827Z,3.38
2023-02-08T11:32:00.094Z,3.57
2023-02-08T11:37:13.690Z,3.79
2023-02-08T11:42:25.725Z,4.21
2023-02-08T11:47:34.610Z,4.24
2023-02-08T11:52:42.250Z,4.26
2023-02-08T11:58:20.362Z,4.48
2023-02-08T12:03:31.210Z,4.50
2023-02-08T12:08:35.832Z,4.77
2023-02-08T12:13:44.797Z,4.89
2023-02-08T12:18:56.508Z,4.43
2023-02-08T12:24:19.840Z,4.39
2023-02-08T12:29:48.458Z,4.46
2023-02-08T12:35:39.058Z,4.47
2023-02-08T12:41:10.348Z,4.48
2023-02-08T12:46:21.270Z,4.45
2023-02-08T12:51:37.717Z,4.46
2023-02-08T12:56:53.630Z,4.59
2023-02-08T13:02:12.057Z,4.61
2023-02-08T13:07:19.657Z,4.63
2023-02-08T13:12:25.873Z,4.78
2023-02-08T13:17:34.932Z,4.75
2023-02-08T13:22:40.749Z,4.79
2023-02-08T13:27:42.659Z,4.81
2023-02-08T13:32:46.584Z,4.78
2023-02-08T13:38:17.378Z,4.79
2023-02-08T13:43:35.981Z,4.85
2023-02-08T13:48:45.959Z,4.86
2023-02-08T13:53:47.541Z,4.99
2023-02-08T13:58:49.210Z,5.07
2023-02-08T14:04:12.187Z,5.08
2023-02-08T14:09:28.962Z,5.04
2023-02-08T14:14:39.703Z,5.08
2023-02-08T14:19:44.465Z,5.11
2023-02-08T14:24:49.780Z,5.11
2023-02-08T14:30:07.773Z,5.14
2023-02-08T14:35:15.417Z,5.16
2023-02-08T14:40:17.029Z,5.08
2023-02-08T14:45:33.333Z,5.10
2023-02-08T14:50:40.212Z,5.09
2023-02-08T14:55:49.029Z,5.08
2023-02-08T15:00:54.370Z,5.11
2023-02-08T15:06:18.963Z,5.05
2023-02-08T15:11:32.322Z,5.03
2023-02-08T15:16:40.131Z,5.07
2023-02-08T15:21:41.840Z,5.03
2023-02-08T15:26:49.865Z,5.07
2023-02-08T15:31:52.904Z,5.04
2023-02-08T15:36:56.693Z,5.05
2023-02-08T15:41:59.527Z,4.95
2023-02-08T15:47:04.870Z,4.98
2023-02-08T15:52:08.306Z,4.85
2023-02-08T15:57:31.588Z,4.82
2023-02-08T16:02:35.056Z,4.85
2023-02-08T16:07:39.409Z,4.89
2023-02-08T16:12:41.080Z,4.75
2023-02-08T16:17:46.551Z,4.63
2023-02-08T16:23:23.565Z,4.63
2023-02-08T16:28:27.408Z,4.67
2023-02-08T16:33:30.575Z,4.61
2023-02-08T16:38:34.556Z,4.55
2023-02-08T16:43:37.725Z,4.72
2023-02-08T16:48:42.251Z,4.63
2023-02-08T16:53:46.983Z,4.50
2023-02-08T16:58:48.773Z,4.44
2023-02-08T17:03:52.152Z,4.41
2023-02-08T17:08:53.849Z,4.31
2023-02-08T17:13:55.690Z,4.17
2023-02-08T17:18:58.675Z,4.23
2023-02-08T17:24:01.489Z,4.14
2023-02-08T17:29:03.470Z,4.07
2023-02-08T17:34:05.133Z,4.09
2023-02-08T17:39:06.748Z,4.21
2023-02-08T17:44:08.444Z,4.25
2023-02-08T17:49:10.172Z,4.17
2023-02-08T17:54:12.276Z,4.06
2023-02-08T17:59:14.010Z,3.98
2023-02-08T18:04:15.726Z,3.97
2023-02-08T18:09:17.515Z,4.27
2023-02-08T18:14:19.421Z,4.38
2023-02-08T18:19:21.069Z,4.35
2023-02-08T18:24:22.739Z,4.31
2023-02-08T18:29:25.705Z,4.32
2023-02-08T18:34:27.469Z,4.27
2023-02-08T18:39:29.217Z,4.21
2023-02-08T18:44:31.055Z,4.05
2023-02-08T18:49:32.934Z,4.10
2023-02-08T18:54:34.726Z,4.15
2023-02-08T18:59:37.560Z,4.16
2023-02-08T19:04:39.284Z,4.12
2023-02-08T19:09:41.329Z,4.01
2023-02-08T19:14:43.626Z,4.04
2023-02-08T19:19:46.105Z,3.98
2023-02-08T19:24:47.719Z,3.86
2023-02-08T19:29:51.657Z,3.83
2023-02-08T19:34:53.307Z,3.81
2023-02-08T19:39:55.162Z,3.63
2023-02-08T19:44:56.832Z,3.57
2023-02-08T19:49:58.573Z,3.51
2023-02-08T19:55:00.287Z,3.49
2023-02-08T20:00:04.405Z,3.51
2023-02-08T20:05:13.841Z,3.35
2023-02-08T20:10:15.632Z,3.33
2023-02-08T20:15:17.353Z,3.32
2023-02-08T20:20:20.017Z,3.23
2023-02-08T20:25:22.078Z,3.26
2023-02-08T20:30:25.436Z,3.14
2023-02-08T20:35:27.072Z,3.14
2023-02-08T20:40:32.033Z,3.23
2023-02-08T20:45:33.691Z,3.19
2023-02-08T20:50:35.411Z,3.18
2023-02-08T20:55:43.873Z,3.31
2023-02-08T21:00:46.543Z,3.37
2023-02-08T21:06:00.756Z,3.10
2023-02-08T21:11:02.599Z,2.96
2023-02-08T21:16:18.594Z,2.86
2023-02-08T21:21:20.811Z,2.89
2023-02-08T21:26:23.025Z,2.75
2023-02-08T21:31:25.258Z,2.79
2023-02-08T21:36:27.290Z,2.77
2023-02-08T21:41:32.295Z,2.60
2023-02-08T21:46:52.180Z,2.77
2023-02-08T21:52:12.282Z,2.70
2023-02-08T21:57:23.180Z,2.52
2023-02-08T22:02:28.633Z,2.72
2023-02-08T22:07:41.161Z,2.59
2023-02-08T22:12:47.217Z,2.56
2023-02-08T22:17:53.446Z,2.65
2023-02-08T22:22:55.588Z,2.58
2023-02-08T22:27:57.414Z,2.53
2023-02-08T22:32:59.164Z,2.40
2023-02-08T22:38:00.851Z,2.35
2023-02-08T22:43:02.517Z,2.26
2023-02-08T22:48:06.220Z,2.24
2023-02-08T22:53:08.585Z,2.15
2023-02-08T22:58:10.329Z,2.18
2023-02-08T23:03:12.219Z,2.23
2023-02-08T23:08:16.394Z,2.09
2023-02-08T23:13:18.002Z,2.12
2023-02-08T23:18:19.650Z,1.91
2023-02-08T23:23:21.765Z,1.95
2023-02-08T23:28:23.631Z,1.80
2023-02-08T23:33:25.342Z,1.81
2023-02-08T23:38:27.045Z,1.82
2023-02-08T23:43:28.813Z,1.83
2023-02-08T23:48:30.505Z,1.60
2023-02-08T23:53:33.085Z,1.63
2023-02-08T23:58:35.383Z,1.66
